Time;durP1;ratioP1;P1;durP2;ratioP2;P2;SDS_P1;SDS_P2;PMS_P1;PMS_P2;Temp;Humidity;BMP_temperature;BMP_pressure;BME280_temperature;BME280_humidity;BME280_pressure;Samples;Min_cycle;Max_cycle;Signal;HPM_P1;HPM_P2
2023/02/25 00:01:27;;;;;;;25.17;13.15;;;;;;;2.84;80.29;95946.75;6187999;23;20021;-62
2023/02/25 00:03:54;;;;;;;21.85;12.43;;;;;;;2.83;80.32;95945.00;6187523;23;20028;-62
2023/02/25 00:06:22;;;;;;;21.65;12.43;;;;;;;2.82;80.58;95945.91;6187454;23;20025;-61
2023/02/25 00:08:50;;;;;;;26.25;13.75;;;;;;;2.74;80.83;95952.94;6187667;23;20025;-62
2023/02/25 00:11:18;;;;;;;28.60;13.38;;;;;;;2.73;80.97;95949.50;6187404;23;20028;-62
2023/02/25 00:13:47;;;;;;;25.73;13.55;;;;;;;2.76;80.59;95954.63;6187167;23;20100;-62
2023/02/25 00:16:15;;;;;;;25.92;13.02;;;;;;;2.74;80.47;95953.78;6186952;23;20031;-62
2023/02/25 00:18:45;;;;;;;27.70;13.75;;;;;;;2.71;80.20;95947.81;6187229;23;20018;-62
2023/02/25 00:21:14;;;;;;;21.65;9.77;;;;;;;2.61;79.86;95954.84;6187611;23;20017;-62
2023/02/25 00:23:43;;;;;;;26.95;12.50;;;;;;;2.51;79.98;95947.28;6187210;23;20052;-62
2023/02/25 00:26:11;;;;;;;25.67;12.80;;;;;;;2.48;80.47;95942.16;6187003;23;20024;-62
2023/02/25 00:28:40;;;;;;;24.45;12.68;;;;;;;2.33;81.34;95937.22;6187118;23;20043;-62
2023/02/25 00:31:10;;;;;;;29.98;12.35;;;;;;;2.24;81.68;95933.91;6187223;23;20021;-62
2023/02/25 00:33:40;;;;;;;;;;;;;;;2.14;81.64;95935.75;6187435;23;20063;-62
2023/02/25 00:36:09;;;;;;;24.43;13.67;;;;;;;2.05;81.42;95930.72;6187136;23;19963;-61
2023/02/25 00:38:37;;;;;;;23.38;13.40;;;;;;;2.05;81.78;95935.88;6187444;23;20025;-62
2023/02/25 00:41:10;;;;;;;25.27;14.13;;;;;;;1.99;81.56;95931.63;6187004;23;20021;-62
2023/02/25 00:43:38;;;;;;;29.88;13.60;;;;;;;1.95;82.33;95923.97;6187287;23;20044;-62
2023/02/25 00:46:06;;;;;;;28.33;14.60;;;;;;;1.91;83.34;95922.31;6186989;23;20017;-62
2023/02/25 00:48:34;;;;;;;33.20;15.07;;;;;;;1.88;85.07;95908.59;6187534;23;20018;-62
2023/02/25 00:51:09;;;;;;;28.63;14.38;;;;;;;1.94;84.87;95909.38;6187087;23;20025;-62
2023/02/25 00:53:37;;;;;;;28.60;15.07;;;;;;;1.87;84.85;95900.88;6186913;23;20075;-61
2023/02/25 00:56:05;;;;;;;31.38;14.52;;;;;;;1.87;85.65;95900.88;6186860;23;20017;-62
2023/02/25 00:58:35;;;;;;;35.17;16.58;;;;;;;1.88;86.50;95900.84;6187453;23;20048;-61
2023/02/25 01:01:02;;;;;;;36.63;16.45;;;;;;;1.92;87.64;95893.06;6186948;23;20096;-62
2023/02/25 01:03:30;;;;;;;38.92;16.15;;;;;;;2.02;87.00;95892.06;6187266;23;20439;-62
2023/02/25 01:05:58;;;;;;;31.02;15.00;;;;;;;2.08;86.05;95894.53;6186948;23;20044;-62
2023/02/25 01:08:25;;;;;;;26.52;13.30;;;;;;;2.17;84.88;95896.16;6187193;23;20060;-62
2023/02/25 01:10:52;;;;;;;24.85;13.45;;;;;;;2.23;83.97;95906.34;6186731;23;20025;-62
2023/02/25 01:13:19;;;;;;;29.83;13.65;;;;;;;2.23;83.69;95908.94;6186595;23;20510;-62
2023/02/25 01:15:46;;;;;;;26.38;13.98;;;;;;;2.22;82.57;95902.09;6186617;23;20025;-62
2023/02/25 01:18:13;;;;;;;24.08;14.13;;;;;;;2.26;82.30;95901.16;6187051;23;20391;-62
2023/02/25 01:20:41;;;;;;;29.05;14.82;;;;;;;2.27;81.72;95892.56;6186813;23;20092;-62
2023/02/25 01:23:09;;;;;;;25.60;13.80;;;;;;;2.18;81.18;95887.53;6186481;23;20096;-63
2023/02/25 01:25:40;;;;;;;25.63;14.27;;;;;;;2.18;80.73;95890.09;6186869;23;20533;-62
2023/02/25 01:28:08;;;;;;;25.10;14.10;;;;;;;2.09;80.54;95878.19;6186541;23;20021;-63
2023/02/25 01:30:36;;;;;;;31.10;14.68;;;;;;;1.98;81.07;95886.09;6186658;23;20474;-62
2023/02/25 01:33:03;;;;;;;32.08;14.75;;;;;;;1.92;81.29;95882.75;6186522;23;20063;-62
2023/02/25 01:35:30;;;;;;;30.40;13.63;;;;;;;1.86;81.61;95881.97;6186734;23;20017;-62
2023/02/25 01:37:57;;;;;;;23.80;13.02;;;;;;;1.83;81.57;95868.22;6185861;23;20052;-62
2023/02/25 01:40:26;;;;;;;24.95;14.43;;;;;;;1.76;82.00;95870.06;6186930;23;20083;-62
2023/02/25 01:42:53;;;;;;;32.20;15.98;;;;;;;1.73;82.28;95868.38;6186806;23;20091;-61
2023/02/25 01:45:32;;;;;;;35.10;16.10;;;;;;;1.70;83.04;95867.56;6186657;23;20017;-62
2023/02/25 01:48:09;;;;;;;31.05;16.45;;;;;;;1.68;84.04;95854.69;6186795;23;20021;-62
2023/02/25 01:50:42;;;;;;;34.97;17.50;;;;;;;1.69;84.05;95860.72;6186827;23;20025;-62
2023/02/25 01:53:09;;;;;;;38.15;17.92;;;;;;;1.71;83.88;95856.38;6186263;23;20056;-62
2023/02/25 01:55:40;;;;;;;33.17;16.45;;;;;;;1.76;83.09;95859.75;6186332;23;20056;-62
2023/02/25 01:58:08;;;;;;;;;;;;;;;1.77;82.89;95856.28;6186863;23;20021;-62
2023/02/25 02:00:36;;;;;;;26.45;13.82;;;;;;;1.76;82.74;95863.19;6186433;23;19923;-61
2023/02/25 02:03:14;;;;;;;35.33;15.57;;;;;;;1.81;82.88;95862.25;6186093;23;20104;-62
2023/02/25 02:05:51;;;;;;;26.85;15.60;;;;;;;1.80;82.12;95865.72;6186168;23;20064;-62
2023/02/25 02:08:18;;;;;;;31.58;15.55;;;;;;;1.75;82.09;95858.88;6185994;23;20029;-62
2023/02/25 02:10:47;;;;;;;35.97;15.63;;;;;;;1.70;83.50;95859.81;6186110;23;20028;-62
2023/02/25 02:13:16;;;;;;;29.80;15.45;;;;;;;1.71;84.06;95848.63;6186111;23;20071;-62
2023/02/25 02:15:54;;;;;;;43.63;19.25;;;;;;;1.65;84.55;95849.56;6185843;23;20079;-63
2023/02/25 02:18:22;;;;;;;37.65;17.00;;;;;;;1.70;84.79;95852.09;6186367;23;20018;-63
2023/02/25 02:21:05;;;;;;;28.13;15.15;;;;;;;1.72;84.58;95853.75;6185792;23;20091;-63
2023/02/25 02:24:12;;;;;;;36.75;17.30;;;;;;;1.70;84.29;95855.53;6186011;23;20204;-62
2023/02/25 02:26:54;;;;;;;32.28;16.13;;;;;;;1.67;83.70;95855.56;6152338;23;20331;-62
2023/02/25 02:30:14;;;;;;;40.08;16.83;;;;;;;1.64;84.01;95858.19;6186471;23;20021;-62
2023/02/25 02:32:47;;;;;;;32.58;15.77;;;;;;;1.60;83.32;95854.78;6185916;23;20020;-62
2023/02/25 02:35:22;;;;;;;32.53;15.95;;;;;;;1.44;83.69;95846.41;6186146;23;20048;-60
2023/02/25 02:38:03;;;;;;;36.05;17.08;;;;;;;1.36;85.44;95849.06;6185944;23;20467;-62
2023/02/25 02:40:43;;;;;;;36.70;17.17;;;;;;;1.31;85.76;95850.00;6186273;23;20088;-62
2023/02/25 02:43:21;;;;;;;49.20;19.02;;;;;;;1.26;85.93;95852.63;6185887;23;20100;-62
2023/02/25 02:45:51;;;;;;;29.77;16.50;;;;;;;1.29;85.82;95847.44;6186098;23;20017;-61
2023/02/25 02:48:25;;;;;;;36.42;17.48;;;;;;;1.27;85.09;95851.78;6186142;23;20063;-63
2023/02/25 02:50:57;;;;;;;42.78;19.17;;;;;;;1.15;86.30;95841.63;6185762;23;20067;-62
2023/02/25 02:53:29;;;;;;;38.45;17.83;;;;;;;1.22;86.89;95846.69;6185703;23;20021;-62
2023/02/25 02:56:00;;;;;;;44.25;16.77;;;;;;;1.14;86.22;95853.63;6185683;23;20463;-62
2023/02/25 02:58:31;;;;;;;40.80;17.45;;;;;;;1.22;86.32;95853.56;6173712;23;20057;-62
2023/02/25 03:01:03;;;;;;;34.38;18.30;;;;;;;1.22;86.29;95844.13;6155890;23;20424;-63
2023/02/25 03:03:36;;;;;;;33.42;16.35;;;;;;;1.28;85.88;95842.31;6155902;23;20101;-63
2023/02/25 03:06:07;;;;;;;38.55;18.92;;;;;;;1.22;86.33;95838.09;6155971;23;20083;-62
2023/02/25 03:08:40;;;;;;;32.20;17.73;;;;;;;1.29;86.56;95826.84;6156365;23;20022;-62
2023/02/25 03:11:07;;;;;;;33.53;17.55;;;;;;;1.35;85.46;95824.19;6156379;23;20518;-61
2023/02/25 03:13:36;;;;;;;37.40;19.17;;;;;;;1.24;85.37;95826.06;6155792;23;20505;-62
2023/02/25 03:16:07;;;;;;;37.75;18.13;;;;;;;1.25;85.81;95826.03;6155559;23;20679;-62
2023/02/25 03:18:42;;;;;;;30.90;15.98;;;;;;;1.28;84.66;95824.28;6156003;23;20100;-62
2023/02/25 03:21:14;;;;;;;34.42;15.20;;;;;;;1.30;84.26;95835.44;6155920;23;20045;-62
2023/02/25 03:23:45;;;;;;;32.67;16.90;;;;;;;1.30;84.43;95835.44;6155910;23;20344;-62
2023/02/25 03:26:18;;;;;;;34.72;17.75;;;;;;;1.29;84.71;95846.63;6156218;23;20017;-62
2023/02/25 03:28:45;;;;;;;32.15;17.63;;;;;;;1.32;84.63;95837.09;6155946;23;20093;-62
2023/02/25 03:31:20;;;;;;;35.88;18.15;;;;;;;1.34;84.52;95843.09;6155861;23;20024;-63
2023/02/25 03:33:53;;;;;;;41.70;16.98;;;;;;;1.34;84.65;95843.09;6155656;23;20053;-62
2023/02/25 03:36:25;;;;;;;39.35;18.75;;;;;;;1.36;84.95;95837.94;6156359;23;20040;-62
2023/02/25 03:38:58;;;;;;;52.42;28.83;;;;;;;1.39;85.57;95828.41;6155938;23;20021;-61
2023/02/25 03:41:36;;;;;;;37.20;19.48;;;;;;;1.42;85.23;95829.25;6155933;23;20021;-62
2023/02/25 03:44:06;;;;;;;32.35;17.20;;;;;;;1.34;84.77;95834.50;6155916;23;20026;-62
2023/02/25 03:46:34;;;;;;;;;;;;;;;1.31;85.43;95829.38;6156192;23;20056;-62
2023/02/25 03:49:04;;;;;;;36.10;17.17;;;;;;;1.24;85.13;95826.06;6155691;23;19916;-63
2023/02/25 03:51:36;;;;;;;34.00;17.75;;;;;;;1.20;84.57;95817.50;6155640;23;20021;-62
2023/02/25 03:54:03;;;;;;;41.03;19.10;;;;;;;1.16;85.23;95831.28;6155585;23;20045;-62
2023/02/25 03:56:30;;;;;;;35.60;18.40;;;;;;;1.16;85.84;95815.84;6155632;23;20044;-62
2023/02/25 03:58:57;;;;;;;46.10;20.15;;;;;;;1.13;85.99;95824.47;6155773;23;20021;-63
2023/02/25 04:01:29;;;;;;;38.78;18.92;;;;;;;1.16;86.11;95822.69;6157135;23;20384;-62
2023/02/25 04:03:56;;;;;;;49.35;19.98;;;;;;;1.12;86.87;95827.88;6157690;23;20021;-63
2023/02/25 04:06:25;;;;;;;38.20;19.35;;;;;;;1.15;87.28;95819.28;6157923;23;20347;-63
2023/02/25 04:08:52;;;;;;;33.88;17.35;;;;;;;1.19;86.24;95814.94;6157654;23;20049;-62
2023/02/25 04:11:19;;;;;;;42.45;19.65;;;;;;;1.21;86.39;95808.06;6157558;23;20057;-63
2023/02/25 04:13:46;;;;;;;34.03;17.40;;;;;;;1.21;85.93;95801.16;6157713;23;20017;-61
2023/02/25 04:16:14;;;;;;;34.20;17.80;;;;;;;1.22;84.80;95792.56;6157148;23;20530;-62
2023/02/25 04:18:43;;;;;;;43.20;20.00;;;;;;;1.10;85.00;95796.16;6157746;23;20025;-63
2023/02/25 04:21:28;;;;;;;33.03;16.10;;;;;;;1.13;86.16;95784.97;6157340;23;20029;-62
2023/02/25 04:23:56;;;;;;;43.47;18.75;;;;;;;1.18;86.43;95790.91;6157316;23;20022;-63
2023/02/25 04:26:23;;;;;;;35.30;16.92;;;;;;;1.15;85.39;95782.34;6157728;23;20523;-61
2023/02/25 04:28:50;;;;;;;31.70;17.02;;;;;;;1.13;84.97;95788.41;6157681;23;20018;-62
2023/02/25 04:31:17;;;;;;;38.42;17.58;;;;;;;1.09;84.65;95778.13;6157137;23;20369;-62
2023/02/25 04:33:48;;;;;;;40.25;19.17;;;;;;;1.11;85.23;95782.41;6157055;23;20026;-62
2023/02/25 04:36:31;;;;;;;35.15;17.73;;;;;;;1.05;85.49;95773.91;6157346;23;20037;-62
2023/02/25 04:39:02;;;;;;;35.53;17.17;;;;;;;1.07;85.93;95778.16;6157363;23;20025;-62
2023/02/25 04:41:31;;;;;;;34.25;18.40;;;;;;;1.07;85.82;95780.75;6157523;23;20018;-62
2023/02/25 04:43:59;;;;;;;32.45;16.85;;;;;;;1.08;85.68;95789.31;6157371;23;20022;-62
2023/02/25 04:46:26;;;;;;;40.38;17.92;;;;;;;1.07;85.97;95779.88;6157532;23;20022;-63
2023/02/25 04:48:53;;;;;;;35.95;17.08;;;;;;;1.10;85.51;95785.84;6157089;23;20449;-63
2023/02/25 04:51:21;;;;;;;40.42;17.10;;;;;;;1.11;85.87;95781.53;6157422;23;20021;-62
2023/02/25 04:53:49;;;;;;;37.42;19.33;;;;;;;1.13;85.48;95782.38;6157015;23;20018;-63
2023/02/25 04:56:16;;;;;;;36.90;19.80;;;;;;;1.17;85.08;95778.88;6156699;23;20032;-62
2023/02/25 04:58:44;;;;;;;42.97;20.88;;;;;;;1.17;85.03;95789.19;6156999;23;20482;-63
2023/02/25 05:01:12;;;;;;;43.53;18.08;;;;;;;1.17;84.88;95785.78;6157161;23;20080;-62
2023/02/25 05:03:40;;;;;;;34.83;17.80;;;;;;;1.10;84.51;95796.16;6157398;23;20021;-62
2023/02/25 05:06:09;;;;;;;35.90;16.92;;;;;;;1.09;84.11;95794.44;6156733;23;20024;-62
2023/02/25 05:08:37;;;;;;;27.10;15.48;;;;;;;1.03;84.09;95791.09;6157203;23;20043;-63
2023/02/25 05:11:05;;;;;;;36.58;17.65;;;;;;;0.94;85.16;95790.34;6156830;23;20029;-62
2023/02/25 05:13:33;;;;;;;39.08;18.90;;;;;;;0.96;86.17;95792.91;6156857;23;20029;-62
2023/02/25 05:16:05;;;;;;;46.42;20.45;;;;;;;0.89;86.97;95794.69;6156603;23;20033;-62
2023/02/25 05:18:35;;;;;;;41.97;18.90;;;;;;;0.93;87.85;95796.34;6156864;23;20068;-63
2023/02/25 05:21:03;;;;;;;;;;;;;;;1.06;87.41;95785.91;6157325;23;20025;-62
2023/02/25 05:23:30;;;;;;;36.58;15.70;;;;;;;1.14;86.22;95794.38;6156826;23;20349;-62
2023/02/25 05:25:59;;;;;;;37.08;17.65;;;;;;;1.21;85.87;95790.84;6157111;23;20022;-63
2023/02/25 05:28:28;;;;;;;34.13;19.08;;;;;;;1.34;85.60;95785.53;6157108;23;20017;-62
2023/02/25 05:30:55;;;;;;;37.65;18.17;;;;;;;1.43;85.70;95784.56;6156655;23;20515;-62
2023/02/25 05:33:23;;;;;;;40.05;20.52;;;;;;;1.59;86.43;95788.63;6157188;23;20022;-63
2023/02/25 05:35:51;;;;;;;43.35;18.15;;;;;;;1.71;85.94;95791.88;6157106;23;20049;-62
2023/02/25 05:38:18;;;;;;;37.30;17.35;;;;;;;1.82;85.31;95789.16;6156745;23;20072;-62
2023/02/25 05:40:47;;;;;;;27.83;15.25;;;;;;;1.94;85.20;95801.03;6156712;23;20025;-62
2023/02/25 05:43:14;;;;;;;31.55;15.55;;;;;;;2.11;84.35;95795.59;6156540;23;20522;-62
2023/02/25 05:45:42;;;;;;;30.50;15.35;;;;;;;2.61;83.66;95786.97;6156600;23;20018;-62
2023/02/25 05:48:09;;;;;;;27.25;14.95;;;;;;;3.21;82.08;95774.63;6157175;23;20052;-62
2023/02/25 05:50:40;;;;;;;30.30;16.67;;;;;;;3.89;81.67;95787.78;6156931;23;20018;-62
2023/02/25 05:53:08;;;;;;;22.48;14.00;;;;;;;4.58;79.36;95790.44;6156601;23;20448;-62
2023/02/25 05:55:35;;;;;;;23.23;11.68;;;;;;;5.37;74.82;95792.63;6156792;23;20355;-62
2023/02/25 05:58:02;;;;;;;22.63;11.15;;;;;;;6.10;69.82;95790.44;6156947;23;20072;-62
2023/02/25 06:00:29;;;;;;;22.00;12.05;;;;;;;6.89;68.16;95794.75;6156967;23;20052;-64
2023/02/25 06:02:58;;;;;;;21.85;12.30;;;;;;;7.65;65.78;95792.88;6156771;23;20022;-62
2023/02/25 06:05:26;;;;;;;19.00;11.70;;;;;;;8.28;63.53;95793.91;6156543;23;20021;-62
2023/02/25 06:07:53;;;;;;;20.40;12.50;;;;;;;8.83;59.86;95795.16;6156340;23;20032;-63
2023/02/25 06:10:21;;;;;;;24.55;11.90;;;;;;;9.28;58.08;95801.03;6156929;23;20392;-62
2023/02/25 06:12:48;;;;;;;19.85;11.27;;;;;;;9.50;56.71;95801.81;6156757;23;20022;-63
2023/02/25 06:15:15;;;;;;;18.83;11.95;;;;;;;9.59;56.45;95801.41;6156719;23;20052;-62
2023/02/25 06:17:42;;;;;;;24.52;13.00;;;;;;;9.68;56.15;95794.91;6155969;23;20092;-62
2023/02/25 06:20:14;;;;;;;23.77;13.20;;;;;;;10.22;55.00;95799.34;6156207;23;20025;-64
2023/02/25 06:22:41;;;;;;;23.45;13.45;;;;;;;10.54;54.41;95802.19;6156232;23;20025;-63
2023/02/25 06:25:10;;;;;;;21.05;12.57;;;;;;;11.29;53.07;95803.66;6156136;23;20022;-63
2023/02/25 06:27:39;;;;;;;22.30;14.30;;;;;;;12.00;50.39;95809.47;6156414;23;20088;-63
2023/02/25 06:30:08;;;;;;;24.03;13.83;;;;;;;12.28;49.37;95806.28;6156298;23;20028;-63
2023/02/25 06:32:38;;;;;;;22.83;13.10;;;;;;;12.31;49.62;95800.88;6156648;23;20026;-63
2023/02/25 06:35:06;;;;;;;24.40;14.00;;;;;;;12.55;49.12;95808.25;6156160;23;20025;-63
2023/02/25 06:37:35;;;;;;;24.05;14.25;;;;;;;12.69;49.13;95802.19;6156177;23;20029;-63
2023/02/25 06:40:03;;;;;;;24.63;13.73;;;;;;;13.08;48.42;95802.56;6156212;23;20056;-60
2023/02/25 06:42:30;;;;;;;21.10;13.25;;;;;;;13.55;48.29;95802.41;6156022;23;20026;-61
2023/02/25 06:44:58;;;;;;;25.17;14.23;;;;;;;14.14;47.03;95796.97;6156493;23;20059;-60
2023/02/25 06:47:25;;;;;;;21.13;13.27;;;;;;;14.60;46.61;95809.84;6156146;23;20246;-61
2023/02/25 06:49:53;;;;;;;23.40;14.13;;;;;;;15.01;46.48;95801.00;6156012;23;20022;-61
2023/02/25 06:52:20;;;;;;;20.88;13.00;;;;;;;15.59;46.00;95791.81;6156049;23;20391;-61
2023/02/25 06:54:50;;;;;;;20.60;13.43;;;;;;;16.25;44.89;95803.91;6155959;23;20324;-61
2023/02/25 06:57:18;;;;;;;20.95;13.13;;;;;;;16.66;43.61;95807.09;6156108;23;20025;-61
2023/02/25 06:59:47;;;;;;;19.55;12.73;;;;;;;16.88;43.96;95808.13;6156476;23;20051;-61
2023/02/25 07:02:15;;;;;;;19.33;12.90;;;;;;;17.01;44.93;95801.91;6156187;23;20021;-61
2023/02/25 07:04:42;;;;;;;21.25;12.38;;;;;;;16.84;45.48;95797.91;6156211;23;20032;-62
2023/02/25 07:07:09;;;;;;;18.25;12.48;;;;;;;17.07;45.55;95793.56;6156380;23;20053;-61
2023/02/25 07:09:37;;;;;;;22.13;13.25;;;;;;;16.90;45.04;95787.72;6156124;23;20459;-61
2023/02/25 07:12:06;;;;;;;22.08;14.55;;;;;;;16.95;44.18;95787.38;6156020;23;20060;-61
2023/02/25 07:14:33;;;;;;;24.00;15.18;;;;;;;17.68;42.53;95783.63;6155912;23;20024;-61
2023/02/25 07:17:01;;;;;;;22.85;15.07;;;;;;;18.41;41.30;95777.00;6155477;23;20022;-61
2023/02/25 07:19:29;;;;;;;20.30;13.95;;;;;;;19.24;39.79;95772.88;6156211;23;20041;-61
2023/02/25 07:21:57;;;;;;;21.30;13.77;;;;;;;20.13;37.91;95768.75;6155892;23;20049;-61
2023/02/25 07:24:25;;;;;;;19.50;13.15;;;;;;;20.51;37.50;95786.69;6155978;23;20024;-62
2023/02/25 07:26:55;;;;;;;26.67;14.15;;;;;;;20.48;37.50;95786.97;6155821;23;20096;-61
2023/02/25 07:29:25;;;;;;;22.50;13.30;;;;;;;20.38;37.95;95793.09;6156375;23;20040;-61
2023/02/25 07:31:52;;;;;;;21.35;13.80;;;;;;;20.78;37.32;95791.31;6155829;23;20021;-62
2023/02/25 07:34:20;;;;;;;23.95;14.40;;;;;;;20.50;37.16;95790.31;6156107;23;20443;-62
2023/02/25 07:36:48;;;;;;;21.23;13.52;;;;;;;20.08;38.35;95781.63;6157664;23;20514;-61
2023/02/25 07:39:15;;;;;;;27.13;15.25;;;;;;;19.28;39.40;95784.88;6157516;23;20526;-62
2023/02/25 07:41:42;;;;;;;26.52;16.70;;;;;;;18.93;39.89;95778.94;6158203;23;20022;-61
2023/02/25 07:44:10;;;;;;;25.75;16.27;;;;;;;18.43;41.06;95773.25;6158077;23;20399;-61
2023/02/25 07:46:39;;;;;;;25.60;16.02;;;;;;;18.73;40.54;95770.88;6157686;23;20079;-61
2023/02/25 07:49:07;;;;;;;23.95;16.20;;;;;;;18.62;40.30;95770.91;6157891;23;20053;-61
2023/02/25 07:51:34;;;;;;;22.73;15.82;;;;;;;18.25;41.50;95761.53;6157596;23;20025;-61
2023/02/25 07:54:02;;;;;;;21.13;15.35;;;;;;;18.12;41.57;95759.06;6157625;23;20076;-61
2023/02/25 07:56:30;;;;;;;28.42;16.80;;;;;;;17.93;42.11;95755.22;6157358;23;20352;-61
2023/02/25 07:58:58;;;;;;;23.33;15.88;;;;;;;17.29;42.96;95760.19;6158254;23;20088;-61
2023/02/25 08:01:28;;;;;;;26.40;16.83;;;;;;;16.52;45.18;95749.19;6157654;23;20351;-61
2023/02/25 08:04:04;;;;;;;25.83;16.45;;;;;;;15.90;45.96;95749.25;6158024;23;20053;-61
2023/02/25 08:06:32;;;;;;;29.05;18.23;;;;;;;15.55;47.00;95756.06;6157673;23;20021;-64
2023/02/25 08:09:00;;;;;;;30.33;17.90;;;;;;;15.16;48.89;95749.06;6157598;23;20045;-63
2023/02/25 08:11:27;;;;;;;29.10;18.08;;;;;;;14.70;49.73;95747.75;6157539;23;20021;-61
2023/02/25 08:13:55;;;;;;;28.80;17.60;;;;;;;14.11;51.43;95744.56;6157532;23;20029;-60
2023/02/25 08:16:23;;;;;;;33.45;17.77;;;;;;;13.88;51.99;95735.53;6157179;23;20467;-61
2023/02/25 08:18:51;;;;;;;34.00;19.70;;;;;;;13.49;53.42;95732.69;6157742;23;20029;-61
2023/02/25 08:21:22;;;;;;;25.75;17.67;;;;;;;13.35;54.00;95734.38;6157805;23;20113;-60
2023/02/25 08:23:52;;;;;;;26.27;17.27;;;;;;;13.32;53.96;95731.09;6157393;23;20444;-61
2023/02/25 08:26:24;;;;;;;27.23;17.35;;;;;;;13.22;54.13;95728.22;6157363;23;20022;-61
2023/02/25 08:28:52;;;;;;;27.90;17.73;;;;;;;13.16;54.09;95723.31;6157350;23;20022;-61
2023/02/25 08:31:19;;;;;;;33.10;18.73;;;;;;;13.17;54.75;95720.59;6157062;23;20483;-62
2023/02/25 08:33:51;;;;;;;28.92;17.90;;;;;;;13.13;55.00;95717.31;6157706;23;20021;-61
2023/02/25 08:36:22;;;;;;;26.65;17.58;;;;;;;13.08;55.09;95708.91;6157412;23;20029;-61
2023/02/25 08:38:50;;;;;;;;;;;;;;;12.90;55.66;95710.84;6158350;23;20080;-61
2023/02/25 08:41:18;;;;;;;29.33;17.25;;;;;;;12.82;55.68;95710.50;6157376;23;19936;-61
2023/02/25 08:43:48;;;;;;;26.65;17.92;;;;;;;12.75;56.86;95712.63;6157371;23;20032;-61
2023/02/25 08:46:15;;;;;;;29.55;18.75;;;;;;;12.73;56.81;95707.47;6156975;23;20017;-61
2023/02/25 08:48:43;;;;;;;26.45;18.27;;;;;;;12.84;56.54;95698.09;6157176;23;20021;-61
2023/02/25 08:51:13;;;;;;;30.42;18.48;;;;;;;12.76;56.43;95698.56;6157148;23;20053;-61
2023/02/25 08:53:42;;;;;;;34.80;17.83;;;;;;;12.79;55.88;95703.63;6157596;23;20084;-60
2023/02/25 08:56:13;;;;;;;37.05;18.35;;;;;;;12.85;55.57;95700.63;6156806;23;20351;-61
2023/02/25 08:58:41;;;;;;;32.65;17.63;;;;;;;12.76;55.83;95693.31;6156831;23;20025;-61
2023/02/25 09:01:11;;;;;;;31.95;17.40;;;;;;;12.91;56.27;95691.53;6157041;23;20343;-63
2023/02/25 09:03:44;;;;;;;31.15;17.98;;;;;;;12.99;55.47;95686.69;6157124;23;20017;-63
2023/02/25 09:06:12;;;;;;;32.08;17.65;;;;;;;13.21;55.30;95687.13;6157018;23;20032;-63
2023/02/25 09:08:39;;;;;;;31.67;16.83;;;;;;;13.45;54.97;95690.00;6157414;23;20017;-63
2023/02/25 09:11:07;;;;;;;24.30;16.52;;;;;;;13.90;54.39;95691.56;6157333;23;20022;-63
2023/02/25 09:13:35;;;;;;;31.23;16.13;;;;;;;14.28;52.37;95692.66;6157286;23;20017;-63
2023/02/25 09:16:02;;;;;;;26.50;15.25;;;;;;;14.57;51.71;95694.28;6156843;23;20104;-63
2023/02/25 09:18:29;;;;;;;22.70;14.00;;;;;;;14.70;50.76;95683.75;6157207;23;20025;-62
2023/02/25 09:20:57;;;;;;;24.38;14.35;;;;;;;14.69;49.92;95675.00;6157023;23;20032;-61
2023/02/25 09:23:24;;;;;;;26.23;14.25;;;;;;;14.93;50.98;95673.47;6156880;23;20021;-63
2023/02/25 09:25:51;;;;;;;25.50;14.43;;;;;;;15.08;49.93;95674.19;6157290;23;20026;-63
2023/02/25 09:28:20;;;;;;;29.83;14.02;;;;;;;15.19;48.76;95665.50;6157349;23;20017;-63
2023/02/25 09:30:47;;;;;;;22.88;13.00;;;;;;;15.31;48.61;95664.66;6156881;23;20022;-63
2023/02/25 09:33:15;;;;;;;23.17;13.60;;;;;;;15.39;48.17;95669.38;6156798;23;20036;-64
2023/02/25 09:35:42;;;;;;;26.83;13.57;;;;;;;15.68;47.47;95665.59;6156658;23;20076;-64
2023/02/25 09:38:10;;;;;;;24.23;12.60;;;;;;;15.78;46.50;95667.44;6156658;23;20056;-63
2023/02/25 09:40:38;;;;;;;23.17;11.57;;;;;;;15.79;45.11;95660.38;6157092;23;20025;-63
2023/02/25 09:43:18;;;;;;;24.25;12.27;;;;;;;15.66;45.00;95657.78;6156982;23;20021;-63
2023/02/25 09:45:49;;;;;;;20.05;12.15;;;;;;;15.42;46.35;95645.44;6156632;23;20032;-63
2023/02/25 09:48:19;;;;;;;;;;;;;;;15.21;46.95;95643.41;6157188;23;20097;-63
2023/02/25 09:50:52;;;;;;;24.55;12.60;;;;;;;15.16;46.09;95637.59;6156672;23;19916;-64
2023/02/25 09:53:23;;;;;;;24.35;12.48;;;;;;;15.20;46.77;95638.22;6156475;23;20024;-64
2023/02/25 09:55:52;;;;;;;25.52;11.95;;;;;;;15.27;47.12;95642.13;6156637;23;20076;-64
2023/02/25 09:58:27;;;;;;;21.90;12.70;;;;;;;15.30;47.67;95641.91;6156607;23;20100;-62
2023/02/25 10:01:06;;;;;;;28.88;11.65;;;;;;;15.57;46.35;95643.50;6157904;23;20021;-63
2023/02/25 10:03:52;;;;;;;24.50;12.55;;;;;;;15.66;45.28;95637.53;6156418;23;20464;-64
2023/02/25 10:06:28;;;;;;;27.60;13.70;;;;;;;15.84;44.44;95641.56;6156368;23;20021;-64
2023/02/25 10:09:06;;;;;;;23.77;12.48;;;;;;;15.68;44.04;95624.25;6156816;23;20057;-63
2023/02/25 10:11:50;;;;;;;28.30;11.50;;;;;;;15.31;45.70;95617.22;6156721;23;20026;-64
2023/02/25 10:14:32;;;;;;;28.85;11.63;;;;;;;15.30;45.13;95615.56;6156615;23;20026;-63
2023/02/25 10:17:10;;;;;;;26.85;11.80;;;;;;;15.21;45.76;95605.66;6156121;23;20028;-64
2023/02/25 10:19:54;;;;;;;26.15;11.15;;;;;;;15.39;44.21;95606.97;6156736;23;20073;-61
2023/02/25 10:22:39;;;;;;;23.60;10.40;;;;;;;15.66;43.39;95599.81;6156624;23;20044;-61
2023/02/25 10:25:14;;;;;;;18.83;8.77;;;;;;;15.81;40.58;95603.09;6156352;23;20356;-62
2023/02/25 10:27:48;;;;;;;24.13;10.25;;;;;;;15.92;40.19;95603.13;6156351;23;20527;-64
2023/02/25 10:30:19;;;;;;;21.88;11.50;;;;;;;16.13;40.63;95597.22;6156137;23;20026;-64
2023/02/25 10:32:49;;;;;;;26.88;11.43;;;;;;;16.10;42.57;95589.56;6156691;23;20017;-64
2023/02/25 10:35:21;;;;;;;27.13;9.35;;;;;;;16.10;39.88;95584.28;6156491;23;20028;-63
2023/02/25 10:37:49;;;;;;;38.25;15.57;;;;;;;16.13;41.33;95576.13;6156030;23;20025;-64
2023/02/25 10:40:19;;;;;;;31.02;11.80;;;;;;;16.20;41.18;95573.88;6156232;23;20101;-64
2023/02/25 10:42:49;;;;;;;33.75;15.35;;;;;;;16.35;41.23;95565.75;6156437;23;20025;-64
2023/02/25 10:45:23;;;;;;;27.55;10.70;;;;;;;16.42;41.53;95551.13;6156090;23;20057;-64
2023/02/25 10:47:58;;;;;;;31.38;13.95;;;;;;;16.43;42.03;95544.88;6156504;23;20021;-64
2023/02/25 10:50:28;;;;;;;31.55;10.60;;;;;;;16.17;40.74;95539.81;6157197;23;20074;-64
2023/02/25 10:53:00;;;;;;;28.27;10.35;;;;;;;16.25;41.02;95547.97;6157846;23;20022;-64
2023/02/25 10:55:34;;;;;;;28.13;11.05;;;;;;;16.37;40.57;95530.34;6158125;23;20387;-61
2023/02/25 10:58:03;;;;;;;24.15;10.38;;;;;;;16.28;41.06;95525.78;6157924;23;20022;-61
2023/02/25 11:00:35;;;;;;;20.08;10.25;;;;;;;16.42;39.73;95527.38;6157573;23;20343;-61
2023/02/25 11:03:05;;;;;;;28.33;9.73;;;;;;;16.40;39.49;95529.28;6156596;23;20072;-60
2023/02/25 11:05:36;;;;;;;25.08;10.52;;;;;;;16.41;39.80;95523.06;6156202;23;20522;-61
2023/02/25 11:08:07;;;;;;;22.88;9.43;;;;;;;16.47;39.37;95513.81;6156513;23;20022;-63
2023/02/25 11:10:35;;;;;;;21.98;9.82;;;;;;;16.34;39.03;95511.31;6156041;23;20017;-63
2023/02/25 11:13:04;;;;;;;25.13;9.43;;;;;;;16.23;39.72;95515.63;6156583;23;20100;-63
2023/02/25 11:15:35;;;;;;;22.30;9.02;;;;;;;16.27;38.45;95518.84;6156317;23;20025;-63
2023/02/25 11:18:19;;;;;;;17.30;8.55;;;;;;;16.17;39.12;95514.25;6155773;23;20356;-63
2023/02/25 11:20:50;;;;;;;22.48;8.90;;;;;;;16.12;38.80;95519.06;6156214;23;20022;-63
2023/02/25 11:23:24;;;;;;;16.73;8.20;;;;;;;16.09;38.92;95519.31;6156025;23;20018;-63
2023/02/25 11:25:52;;;;;;;29.50;9.70;;;;;;;16.05;38.81;95517.88;6155943;23;20018;-62
2023/02/25 11:28:29;;;;;;;22.85;8.35;;;;;;;16.00;39.28;95504.19;6156201;23;20460;-63
2023/02/25 11:31:06;;;;;;;23.80;8.80;;;;;;;16.01;39.66;95504.06;6156276;23;20026;-63
2023/02/25 11:33:37;;;;;;;20.98;8.13;;;;;;;16.09;40.00;95500.84;6156072;23;20049;-64
2023/02/25 11:36:06;;;;;;;25.35;8.70;;;;;;;16.21;39.97;95495.56;6156019;23;20021;-63
2023/02/25 11:38:36;;;;;;;27.45;8.75;;;;;;;16.35;39.26;95487.44;6155813;23;20028;-63